createdAt,value
2023-04-07T00:00:22.509Z,11.65
2023-04-07T00:02:52.800Z,10.38
2023-04-07T00:05:25.507Z,10.63
2023-04-07T00:07:57.398Z,10.57
2023-04-07T00:10:28.192Z,10.30
2023-04-07T00:12:58.163Z,10.98
2023-04-07T00:15:29.026Z,10.40
2023-04-07T00:17:59.023Z,10.18
2023-04-07T00:20:31.750Z,9.68
2023-04-07T00:23:01.710Z,10.63
2023-04-07T00:25:31.658Z,10.57
2023-04-07T00:28:01.642Z,9.52
2023-04-07T00:30:31.611Z,10.50
2023-04-07T00:33:01.642Z,9.38
2023-04-07T00:35:34.387Z,9.30
2023-04-07T00:38:04.321Z,9.60
2023-04-07T00:40:34.295Z,10.15
2023-04-07T00:43:04.287Z,9.80
2023-04-07T00:45:34.451Z,9.43
2023-04-07T00:48:04.464Z,10.38
2023-04-07T00:50:37.117Z,10.27
2023-04-07T00:53:07.688Z,9.50
2023-04-07T00:55:37.808Z,9.82
2023-04-07T00:58:07.870Z,11.82
2023-04-07T01:00:49.271Z,9.60
2023-04-07T01:03:28.120Z,10.57
2023-04-07T01:06:04.708Z,11.70
2023-04-07T01:08:42.653Z,11.45
2023-04-07T01:11:21.761Z,11.63
2023-04-07T01:13:54.132Z,10.82
2023-04-07T01:16:31.202Z,10.65
2023-04-07T01:19:19.573Z,11.48
2023-04-07T01:21:55.021Z,10.65
2023-04-07T01:24:49.527Z,10.10
2023-04-07T01:27:28.686Z,9.52
2023-04-07T01:30:04.574Z,10.35
2023-04-07T01:32:36.084Z,9.73
2023-04-07T01:35:10.247Z,9.63
2023-04-07T01:37:41.817Z,9.70
2023-04-07T01:40:13.289Z,9.75
2023-04-07T01:42:44.101Z,9.25
2023-04-07T01:45:19.526Z,9.85
2023-04-07T01:47:50.425Z,10.20
2023-04-07T01:50:20.536Z,9.75
2023-04-07T01:52:51.444Z,10.30
2023-04-07T01:55:21.462Z,9.57
2023-04-07T01:57:51.424Z,9.65
2023-04-07T02:00:24.100Z,10.00
2023-04-07T02:03:02.516Z,9.80
2023-04-07T02:05:34.240Z,9.05
2023-04-07T02:08:09.044Z,9.65
2023-04-07T02:10:41.212Z,9.40
2023-04-07T02:13:16.494Z,10.30
2023-04-07T02:15:49.896Z,10.38
2023-04-07T02:18:20.937Z,10.07
2023-04-07T02:20:52.353Z,10.23
2023-04-07T02:23:22.521Z,8.98
2023-04-07T02:25:52.719Z,9.23
2023-04-07T02:28:22.680Z,10.05
2023-04-07T02:30:55.233Z,8.98
2023-04-07T02:33:25.179Z,9.98
2023-04-07T02:35:55.183Z,9.18
2023-04-07T02:38:25.140Z,9.18
2023-04-07T02:40:55.719Z,8.63
2023-04-07T02:43:27.273Z,9.23
2023-04-07T02:45:59.831Z,9.20
2023-04-07T02:48:29.883Z,9.10
2023-04-07T02:50:59.869Z,9.88
2023-04-07T02:53:29.846Z,9.30
2023-04-07T02:55:59.887Z,9.50
2023-04-07T02:58:29.861Z,10.30
2023-04-07T03:01:02.523Z,9.65
2023-04-07T03:03:32.556Z,10.40
2023-04-07T03:06:02.559Z,9.48
2023-04-07T03:08:32.559Z,9.38
2023-04-07T03:11:02.513Z,10.18
2023-04-07T03:13:32.600Z,9.23
2023-04-07T03:16:05.128Z,10.13
2023-04-07T03:18:35.129Z,10.05
2023-04-07T03:21:05.076Z,9.32
2023-04-07T03:23:35.017Z,9.95
2023-04-07T03:26:05.239Z,10.02
2023-04-07T03:28:35.208Z,8.93
2023-04-07T03:31:08.013Z,9.82
2023-04-07T03:33:38.151Z,9.43
2023-04-07T03:36:09.705Z,9.45
2023-04-07T03:38:39.834Z,10.30
2023-04-07T03:41:09.773Z,9.65
2023-04-07T03:43:39.720Z,9.52
2023-04-07T03:46:12.288Z,9.07
2023-04-07T03:48:42.276Z,9.45
2023-04-07T03:51:12.293Z,9.75
2023-04-07T03:53:42.233Z,9.60
2023-04-07T03:56:12.514Z,9.80
2023-04-07T03:58:43.121Z,9.05
2023-04-07T04:01:15.682Z,8.63
2023-04-07T04:03:45.827Z,9.35
2023-04-07T04:06:15.929Z,9.80
2023-04-07T04:08:46.010Z,9.60
2023-04-07T04:11:15.939Z,9.60
2023-04-07T04:13:45.932Z,9.30
2023-04-07T04:16:18.602Z,10.45
2023-04-07T04:18:48.713Z,9.52
2023-04-07T04:21:18.726Z,9.40
2023-04-07T04:23:48.698Z,9.50
2023-04-07T04:26:18.955Z,9.45
2023-04-07T04:28:48.978Z,9.90
2023-04-07T04:31:21.922Z,10.35
2023-04-07T04:33:52.886Z,9.90
2023-04-07T04:36:23.066Z,9.52
2023-04-07T04:38:53.100Z,9.18
2023-04-07T04:41:23.063Z,10.23
2023-04-07T04:43:53.061Z,10.05
2023-04-07T04:46:25.904Z,10.52
2023-04-07T04:48:55.951Z,9.80
2023-04-07T04:51:26.258Z,9.70
2023-04-07T04:53:56.251Z,9.75
2023-04-07T04:56:26.218Z,9.90
2023-04-07T04:58:56.164Z,9.27
2023-04-07T05:01:29.467Z,10.00
2023-04-07T05:04:00.796Z,10.13
2023-04-07T05:06:32.833Z,9.63
2023-04-07T05:09:02.774Z,10.30
2023-04-07T05:11:32.739Z,10.45
2023-04-07T05:14:02.685Z,10.43
2023-04-07T05:16:35.307Z,10.32
2023-04-07T05:19:05.509Z,11.13
2023-04-07T05:21:35.534Z,11.23
2023-04-07T05:24:06.314Z,10.63
2023-04-07T05:26:37.573Z,10.63
2023-04-07T05:29:10.622Z,11.02
2023-04-07T05:31:43.357Z,10.63
2023-04-07T05:34:13.348Z,11.07
2023-04-07T05:36:43.385Z,10.23
2023-04-07T05:39:13.494Z,10.52
2023-04-07T05:41:43.578Z,10.88
2023-04-07T05:44:13.589Z,10.98
2023-04-07T05:46:46.375Z,11.27
2023-04-07T05:49:20.019Z,10.95
2023-04-07T05:51:50.528Z,10.98
2023-04-07T05:54:20.479Z,11.07
2023-04-07T05:56:50.742Z,10.65
2023-04-07T05:59:20.701Z,10.63
2023-04-07T06:01:53.347Z,11.52
2023-04-07T06:04:23.344Z,11.35
2023-04-07T06:06:55.464Z,11.05
2023-04-07T06:09:25.609Z,11.40
2023-04-07T06:11:56.875Z,11.40
2023-04-07T06:14:26.886Z,11.10
2023-04-07T06:16:59.486Z,11.40
2023-04-07T06:19:30.008Z,11.10
2023-04-07T06:21:59.965Z,11.13
2023-04-07T06:24:29.934Z,11.98
2023-04-07T06:26:59.942Z,11.82
2023-04-07T06:29:30.034Z,11.40
2023-04-07T06:32:02.680Z,11.73
2023-04-07T06:34:32.653Z,12.40
2023-04-07T06:37:02.733Z,11.77
2023-04-07T06:39:34.121Z,12.32
2023-04-07T06:42:04.461Z,13.68
2023-04-07T06:44:34.400Z,11.57
2023-04-07T06:47:07.611Z,11.48
2023-04-07T06:49:37.810Z,12.73
2023-04-07T06:52:08.717Z,11.13
2023-04-07T06:54:38.709Z,11.15
2023-04-07T06:57:12.145Z,12.43
2023-04-07T06:59:42.149Z,15.95
2023-04-07T07:02:14.948Z,11.80
2023-04-07T07:04:44.994Z,11.25
2023-04-07T07:07:15.102Z,11.05
2023-04-07T07:09:45.047Z,10.75
2023-04-07T07:12:15.492Z,10.43
2023-04-07T07:14:45.518Z,10.88
2023-04-07T07:17:18.100Z,10.05
2023-04-07T07:19:48.037Z,10.43
2023-04-07T07:22:17.977Z,10.35
2023-04-07T07:24:47.953Z,9.70
2023-04-07T07:27:17.929Z,11.35
2023-04-07T07:29:47.875Z,10.95
2023-04-07T07:32:20.497Z,10.40
2023-04-07T07:34:50.571Z,10.25
2023-04-07T07:37:20.539Z,9.95
2023-04-07T07:39:50.534Z,10.77
2023-04-07T07:42:21.770Z,10.20
2023-04-07T07:44:51.738Z,10.13
2023-04-07T07:47:24.742Z,10.38
2023-04-07T07:49:54.949Z,9.27
2023-04-07T07:52:24.943Z,9.48
2023-04-07T07:54:55.088Z,9.15
2023-04-07T07:57:26.679Z,9.13
2023-04-07T07:59:56.602Z,9.70
2023-04-07T08:02:31.553Z,8.35
2023-04-07T08:05:01.966Z,8.70
2023-04-07T08:07:32.136Z,8.75
2023-04-07T08:10:02.149Z,8.63
2023-04-07T08:12:32.164Z,7.50
2023-04-07T08:15:04.354Z,7.38
2023-04-07T08:17:36.959Z,7.30
2023-04-07T08:20:10.652Z,7.03
2023-04-07T08:22:40.698Z,7.25
2023-04-07T08:25:11.269Z,7.30
2023-04-07T08:27:41.730Z,7.85
2023-04-07T08:30:12.091Z,7.28
2023-04-07T08:32:47.558Z,6.95
2023-04-07T08:35:17.564Z,7.10
2023-04-07T08:37:47.637Z,7.60
2023-04-07T08:40:17.683Z,7.40
2023-04-07T08:42:51.747Z,7.35
2023-04-07T08:45:22.362Z,6.68
2023-04-07T08:47:59.224Z,6.85
2023-04-07T08:50:30.551Z,6.68
2023-04-07T08:53:05.254Z,7.30
2023-04-07T08:55:38.372Z,6.80
2023-04-07T08:58:12.515Z,6.50
2023-04-07T09:00:46.021Z,6.57
2023-04-07T09:03:19.925Z,5.93
2023-04-07T09:05:51.409Z,7.17
2023-04-07T09:08:21.488Z,6.95
2023-04-07T09:10:51.484Z,6.93
2023-04-07T09:13:21.455Z,6.32
2023-04-07T09:15:51.577Z,6.53
2023-04-07T09:18:24.184Z,6.10
2023-04-07T09:21:02.122Z,6.03
2023-04-07T09:23:34.625Z,5.55
2023-04-07T09:26:22.247Z,5.25
2023-04-07T09:28:57.213Z,5.90
2023-04-07T09:31:46.832Z,5.68
2023-04-07T09:34:29.413Z,5.63
2023-04-07T09:36:59.633Z,5.40
2023-04-07T09:39:30.252Z,5.18
2023-04-07T09:42:01.297Z,4.68
2023-04-07T09:44:31.842Z,5.28
2023-04-07T09:47:02.506Z,5.00
2023-04-07T09:49:35.094Z,5.00
2023-04-07T09:52:07.887Z,5.95
2023-04-07T09:54:39.267Z,5.68
2023-04-07T09:57:11.426Z,5.00
2023-04-07T09:59:44.742Z,5.43
2023-04-07T10:02:15.183Z,5.43
2023-04-07T10:04:48.103Z,5.47
2023-04-07T10:07:18.933Z,5.40
2023-04-07T10:09:48.911Z,5.32
2023-04-07T10:12:19.124Z,5.25
2023-04-07T10:14:50.818Z,5.55
2023-04-07T10:17:22.468Z,6.38
2023-04-07T10:19:55.939Z,5.85
2023-04-07T10:22:26.746Z,4.97
2023-04-07T10:25:02.283Z,5.72
2023-04-07T10:27:36.558Z,5.90
2023-04-07T10:30:15.128Z,5.50
2023-04-07T10:32:52.098Z,5.72
2023-04-07T10:35:25.433Z,5.38
2023-04-07T10:38:15.332Z,6.05
2023-04-07T10:40:46.399Z,5.93
2023-04-07T10:43:37.737Z,6.75
2023-04-07T10:46:07.824Z,8.23
2023-04-07T10:48:37.904Z,8.48
2023-04-07T10:51:22.978Z,10.00
2023-04-07T10:54:29.102Z,9.48
2023-04-07T10:57:14.262Z,11.15
2023-04-07T11:00:17.898Z,12.10
2023-04-07T11:02:48.808Z,13.95
2023-04-07T11:05:26.268Z,17.48
2023-04-07T11:08:02.719Z,17.67
2023-04-07T11:10:32.653Z,19.30
2023-04-07T11:13:05.089Z,20.17
2023-04-07T11:15:39.357Z,20.63
2023-04-07T11:18:16.892Z,22.75
2023-04-07T11:20:50.369Z,25.38
2023-04-07T11:23:25.589Z,24.52
2023-04-07T11:26:03.090Z,25.05
2023-04-07T11:28:33.902Z,25.10
2023-04-07T11:31:04.006Z,24.75
2023-04-07T11:33:37.169Z,25.75
2023-04-07T11:36:10.271Z,24.83
2023-04-07T11:38:45.455Z,26.65
2023-04-07T11:41:18.390Z,25.40
2023-04-07T11:43:48.521Z,25.60
2023-04-07T11:46:20.854Z,26.17
2023-04-07T11:48:52.002Z,26.55
2023-04-07T11:51:25.449Z,26.15
2023-04-07T11:54:00.640Z,26.80
2023-04-07T11:56:30.716Z,26.48
2023-04-07T11:59:01.347Z,25.85
2023-04-07T12:01:45.254Z,25.40
2023-04-07T12:04:17.592Z,25.38
2023-04-07T12:06:49.791Z,25.95
2023-04-07T12:09:36.088Z,23.85
2023-04-07T12:12:08.321Z,22.23
2023-04-07T12:14:38.795Z,22.77
2023-04-07T12:17:09.588Z,24.08
2023-04-07T12:19:39.795Z,23.02
2023-04-07T12:22:10.265Z,24.00
2023-04-07T12:24:42.885Z,24.40
2023-04-07T12:27:12.933Z,23.58
2023-04-07T12:29:44.001Z,22.75
2023-04-07T12:32:14.665Z,22.33
2023-04-07T12:34:44.770Z,23.17
2023-04-07T12:37:14.746Z,23.20
2023-04-07T12:39:47.290Z,24.02
2023-04-07T12:42:17.276Z,24.40
2023-04-07T12:44:47.248Z,22.45
2023-04-07T12:47:17.610Z,23.13
2023-04-07T12:49:49.695Z,24.17
2023-04-07T12:52:20.209Z,22.95
2023-04-07T12:54:53.641Z,22.33
2023-04-07T12:57:23.884Z,22.08
2023-04-07T12:59:54.666Z,20.83
2023-04-07T13:02:24.948Z,19.25
2023-04-07T13:04:55.087Z,18.95
2023-04-07T13:07:25.064Z,16.42
2023-04-07T13:09:57.621Z,15.82
2023-04-07T13:12:28.199Z,15.25
2023-04-07T13:15:00.407Z,15.48
2023-04-07T13:17:30.731Z,12.95
2023-04-07T13:20:01.431Z,13.10
2023-04-07T13:22:32.196Z,12.80
2023-04-07T13:25:04.874Z,13.57
2023-04-07T13:27:34.869Z,13.73
2023-04-07T13:30:04.837Z,14.32
2023-04-07T13:32:34.896Z,14.30
2023-04-07T13:35:04.865Z,13.80
2023-04-07T13:37:34.862Z,15.00
2023-04-07T13:40:09.659Z,13.55
2023-04-07T13:42:39.683Z,11.25
2023-04-07T13:45:11.641Z,12.75
2023-04-07T13:47:41.645Z,11.18
2023-04-07T13:50:12.661Z,10.45
2023-04-07T13:52:42.619Z,11.50
2023-04-07T13:55:16.204Z,9.90
2023-04-07T13:57:46.153Z,10.77
2023-04-07T14:00:18.107Z,9.80
2023-04-07T14:02:48.639Z,9.13
2023-04-07T14:05:19.018Z,9.82
2023-04-07T14:07:49.765Z,9.02
2023-04-07T14:10:22.502Z,9.77
2023-04-07T14:12:52.623Z,9.48
2023-04-07T14:15:22.641Z,8.90
2023-04-07T14:17:52.674Z,8.68
2023-04-07T14:20:24.203Z,9.15
2023-04-07T14:22:55.366Z,8.48
2023-04-07T14:25:28.031Z,9.63
2023-04-07T14:27:57.985Z,8.63
2023-04-07T14:30:28.002Z,8.98
2023-04-07T14:32:58.023Z,8.73
2023-04-07T14:35:28.286Z,8.13
2023-04-07T14:37:58.304Z,8.18
2023-04-07T14:40:31.213Z,8.65
2023-04-07T14:45:34.740Z,8.60
2023-04-07T14:48:05.536Z,8.65
2023-04-07T14:50:35.651Z,8.85
2023-04-07T14:53:06.756Z,8.63
2023-04-07T14:55:41.586Z,8.80
2023-04-07T15:00:41.472Z,8.88
2023-04-07T15:03:11.767Z,8.25
2023-04-07T15:05:41.890Z,9.00
2023-04-07T15:08:11.849Z,8.43
2023-04-07T15:10:47.209Z,10.18
2023-04-07T15:13:17.191Z,9.95
2023-04-07T15:15:47.186Z,12.95
2023-04-07T15:18:17.188Z,12.50
2023-04-07T15:20:47.212Z,9.55
2023-04-07T15:23:17.253Z,9.20
2023-04-07T15:25:56.124Z,9.02
2023-04-07T15:28:26.805Z,8.35
2023-04-07T15:30:56.729Z,9.35
2023-04-07T15:33:27.340Z,8.65
2023-04-07T15:35:57.805Z,7.95
2023-04-07T15:38:27.798Z,8.82
2023-04-07T15:41:00.597Z,8.90
2023-04-07T15:43:30.809Z,13.80
2023-04-07T15:46:01.006Z,11.65
2023-04-07T15:48:31.253Z,12.55
2023-04-07T15:51:01.233Z,10.35
2023-04-07T15:53:31.255Z,10.32
2023-04-07T15:56:03.882Z,9.38
2023-04-07T15:58:34.507Z,9.20
2023-04-07T16:01:05.232Z,8.93
2023-04-07T16:03:37.853Z,9.05
2023-04-07T16:06:07.940Z,9.25
2023-04-07T16:08:37.931Z,9.15
2023-04-07T16:11:10.552Z,9.32
2023-04-07T16:13:40.586Z,9.32
2023-04-07T16:16:10.681Z,8.93
2023-04-07T16:18:53.560Z,11.18
2023-04-07T16:21:27.791Z,13.07
2023-04-07T16:24:07.310Z,14.50
2023-04-07T16:26:39.988Z,14.45
2023-04-07T16:29:15.607Z,14.02
2023-04-07T16:31:55.232Z,13.77
2023-04-07T16:34:35.617Z,13.38
2023-04-07T16:37:09.747Z,11.90
2023-04-07T16:39:48.374Z,10.52
2023-04-07T16:42:23.252Z,9.52
2023-04-07T16:44:58.812Z,8.35
2023-04-07T16:47:30.988Z,9.23
2023-04-07T16:50:05.592Z,9.25
2023-04-07T16:52:37.604Z,8.88
2023-04-07T16:55:13.188Z,8.85
2023-04-07T16:57:56.245Z,8.60
2023-04-07T17:00:32.236Z,6.82
2023-04-07T17:03:05.509Z,8.05
2023-04-07T17:05:44.970Z,7.90
2023-04-07T17:08:16.436Z,7.55
2023-04-07T17:10:49.556Z,7.43
2023-04-07T17:13:25.726Z,8.00
2023-04-07T17:16:22.573Z,7.70
2023-04-07T17:19:03.052Z,7.88
2023-04-07T17:21:34.558Z,8.85
2023-04-07T17:24:13.051Z,9.50
2023-04-07T17:26:44.032Z,10.43
2023-04-07T17:29:21.473Z,14.38
2023-04-07T17:31:56.650Z,14.27
2023-04-07T17:34:31.348Z,10.57
2023-04-07T17:37:06.296Z,10.18
2023-04-07T17:39:42.646Z,10.32
2023-04-07T17:42:19.545Z,9.35
2023-04-07T17:44:58.782Z,8.82
2023-04-07T17:47:33.952Z,9.38
2023-04-07T17:50:05.116Z,9.77
2023-04-07T17:52:40.584Z,9.02
2023-04-07T17:55:15.732Z,8.65
2023-04-07T17:57:49.252Z,8.85
2023-04-07T18:00:27.207Z,9.15
2023-04-07T18:03:01.266Z,6.80
2023-04-07T18:05:33.108Z,7.82
2023-04-07T18:08:06.380Z,7.53
2023-04-07T18:10:38.647Z,7.90
2023-04-07T18:13:13.793Z,8.27
2023-04-07T18:15:52.087Z,7.47
2023-04-07T18:18:23.751Z,8.60
2023-04-07T18:20:55.045Z,9.80
2023-04-07T18:23:31.930Z,8.35
2023-04-07T18:26:10.351Z,10.75
2023-04-07T18:28:41.424Z,7.70
2023-04-07T18:31:18.689Z,9.82
2023-04-07T18:33:52.840Z,8.35
2023-04-07T18:36:27.760Z,10.57
2023-04-07T18:39:02.735Z,9.50
2023-04-07T18:41:36.590Z,7.72
2023-04-07T18:44:10.830Z,8.47
2023-04-07T18:46:46.918Z,8.10
2023-04-07T18:49:20.033Z,7.95
2023-04-07T18:51:52.778Z,9.10
2023-04-07T18:54:28.866Z,7.63
2023-04-07T18:57:01.137Z,7.78
2023-04-07T18:59:34.451Z,8.13
2023-04-07T19:02:14.228Z,8.00
2023-04-07T19:04:46.635Z,7.55
2023-04-07T19:07:17.954Z,8.43
2023-04-07T19:09:54.337Z,8.32
2023-04-07T19:12:36.771Z,8.07
2023-04-07T19:15:09.249Z,8.23
2023-04-07T19:17:42.876Z,8.30
2023-04-07T19:20:21.878Z,7.53
2023-04-07T19:23:00.491Z,8.23
2023-04-07T19:25:40.708Z,6.90
2023-04-07T19:28:16.117Z,7.82
2023-04-07T19:30:54.775Z,8.00
2023-04-07T19:33:30.353Z,8.23
2023-04-07T19:36:08.993Z,8.30
2023-04-07T19:38:44.749Z,8.82
2023-04-07T19:41:22.391Z,9.27
2023-04-07T19:43:55.611Z,9.00
2023-04-07T19:46:33.735Z,9.35
2023-04-07T19:49:13.569Z,9.95
2023-04-07T19:51:44.691Z,10.20
2023-04-07T19:54:21.814Z,10.38
2023-04-07T19:56:52.930Z,12.98
2023-04-07T19:59:26.527Z,10.90
2023-04-07T20:02:00.520Z,10.50
2023-04-07T20:04:37.963Z,10.43
2023-04-07T20:07:28.556Z,10.13
2023-04-07T20:10:02.569Z,11.85
2023-04-07T20:12:33.771Z,13.38
2023-04-07T20:15:11.582Z,12.00
2023-04-07T20:17:48.847Z,12.82
2023-04-07T20:20:26.184Z,14.27
2023-04-07T20:23:05.937Z,12.18
2023-04-07T20:25:43.431Z,12.10
2023-04-07T20:28:18.010Z,12.18
2023-04-07T20:30:56.841Z,13.63
2023-04-07T20:33:29.119Z,16.80
2023-04-07T20:36:02.813Z,17.98
2023-04-07T20:38:44.742Z,16.25
2023-04-07T20:41:22.124Z,15.43
2023-04-07T20:43:57.518Z,16.23
2023-04-07T20:46:39.427Z,15.93
2023-04-07T20:49:17.196Z,14.68
2023-04-07T20:51:54.322Z,13.23
2023-04-07T20:54:27.966Z,13.55
2023-04-07T20:57:08.942Z,13.40
2023-04-07T20:59:46.787Z,15.30
2023-04-07T21:02:26.129Z,14.20
2023-04-07T21:05:05.603Z,12.85
2023-04-07T21:07:38.284Z,14.95
2023-04-07T21:10:10.956Z,15.18
2023-04-07T21:12:41.497Z,14.75
2023-04-07T21:15:12.200Z,14.27
2023-04-07T21:17:42.235Z,15.90
2023-04-07T21:20:14.564Z,13.85
2023-04-07T21:22:47.444Z,16.30
2023-04-07T21:25:17.430Z,16.20
2023-04-07T21:27:47.387Z,15.35
2023-04-07T21:30:18.179Z,16.50
2023-04-07T21:32:48.712Z,16.80
2023-04-07T21:35:19.909Z,16.50
2023-04-07T21:37:52.476Z,18.20
2023-04-07T21:40:23.196Z,19.05
2023-04-07T21:42:53.901Z,18.67
2023-04-07T21:45:23.904Z,16.95
2023-04-07T21:47:53.906Z,18.00
2023-04-07T21:50:24.158Z,18.40
2023-04-07T21:52:56.734Z,20.00
2023-04-07T21:55:27.410Z,19.00
2023-04-07T21:57:58.249Z,18.50
2023-04-07T22:00:28.246Z,21.10
2023-04-07T22:02:58.466Z,21.40
2023-04-07T22:05:28.596Z,21.17
2023-04-07T22:08:02.462Z,21.13
2023-04-07T22:10:32.852Z,19.97
2023-04-07T22:13:02.820Z,19.63
2023-04-07T22:15:32.921Z,20.30
2023-04-07T22:18:03.765Z,21.10
2023-04-07T22:20:33.751Z,20.42
2023-04-07T22:23:06.667Z,20.25
2023-04-07T22:25:36.745Z,20.58
2023-04-07T22:28:06.717Z,19.92
2023-04-07T22:30:36.754Z,19.88
2023-04-07T22:33:07.313Z,19.70
2023-04-07T22:35:38.487Z,20.20
2023-04-07T22:38:11.118Z,20.35
2023-04-07T22:40:41.117Z,21.25
2023-04-07T22:43:11.134Z,20.98
2023-04-07T22:45:41.470Z,21.23
2023-04-07T22:48:11.506Z,21.80
2023-04-07T22:50:41.521Z,20.35
2023-04-07T22:53:14.059Z,21.45
2023-04-07T22:55:44.130Z,22.38
2023-04-07T22:58:14.075Z,21.95
2023-04-07T23:00:44.310Z,22.02
2023-04-07T23:03:15.073Z,20.92
2023-04-07T23:05:45.119Z,21.38
2023-04-07T23:08:17.644Z,19.60
2023-04-07T23:10:47.600Z,17.98
2023-04-07T23:13:19.064Z,16.83
2023-04-07T23:15:49.195Z,16.88
2023-04-07T23:18:19.143Z,17.38
2023-04-07T23:20:54.077Z,17.10
2023-04-07T23:23:27.240Z,17.23
2023-04-07T23:25:57.259Z,16.25
2023-04-07T23:28:28.212Z,16.52
2023-04-07T23:30:58.405Z,15.60
2023-04-07T23:33:28.352Z,16.30
2023-04-07T23:35:58.479Z,15.60
2023-04-07T23:38:31.059Z,15.38
2023-04-07T23:41:01.010Z,16.10
2023-04-07T23:43:30.991Z,15.40
2023-04-07T23:46:00.944Z,16.10
2023-04-07T23:48:31.012Z,16.85
2023-04-07T23:51:01.580Z,17.60
2023-04-07T23:53:34.152Z,18.55
2023-04-07T23:56:04.135Z,19.02
2023-04-07T23:58:34.155Z,20.00
